Terminal Aerodrome Forecast
Issued by NWS Portland, OR

Home | Current Version | Previous Version | Text Only | Print | Product List | Glossary On
Versions: 1 2 3 4 5 6 7 8 9 10 11 12 13 14 15 16 17 18 19 20 21 22 23
000
FTUS46 KPQR 310529
TAFTTD
TAF
KTTD 310529Z 3106/0106 09008KT 6SM -RA BR OVC080
     FM311300 21005KT 4SM -RA BR SCT015 BKN035
     FM311800 15005KT P6SM VCSH OVC050
     FM010000 00000KT P6SM VCSH BKN100=

USA.gov is the U.S. government's official web portal to all federal, state and local government web resources and services.